Terminal Aerodrome Forecast
Issued by NWS

Home | Current Version | Previous Version | Text Only | Print | Product List | Glossary On
Versions: 1 2 3 4 5 6 7 8 9 10 11 12 13 14 15 16
000
FTUS44 KLIX 212340
TAFHUM
TAF
KHUM 212340Z 2200/2224 17012KT P6SM BKN018
      TEMPO 2200/2204 SCT018 BKN060
     FM220700 16007KT 5SM BR BKN010
     FM221400 15009KT P6SM SCT015 BKN020
     FM221700 16012KT P6SM BKN020 BKN040
     FM221800 16012KT P6SM FEW025 SCT045=

USA.gov is the U.S. government's official web portal to all federal, state and local government web resources and services.